createdAt,value
2022-11-22T00:00:59.150Z,0.90
2022-11-22T00:02:00.184Z,0.90
2022-11-22T00:03:00.536Z,0.70
2022-11-22T00:04:01.433Z,0.70
2022-11-22T00:05:02.317Z,0.70
2022-11-22T00:06:03.199Z,0.80
2022-11-22T00:07:04.152Z,0.80
2022-11-22T00:08:05.007Z,0.70
2022-11-22T00:09:05.901Z,0.70
2022-11-22T00:10:06.785Z,0.80
2022-11-22T00:11:07.671Z,0.80
2022-11-22T00:12:08.554Z,0.80
2022-11-22T00:13:09.450Z,0.80
2022-11-22T00:14:10.331Z,0.70
2022-11-22T00:15:11.219Z,0.70
2022-11-22T00:16:12.101Z,0.90
2022-11-22T00:17:13.006Z,0.90
2022-11-22T00:18:13.871Z,0.90
2022-11-22T00:19:14.783Z,0.80
2022-11-22T00:20:15.649Z,0.80
2022-11-22T00:21:16.533Z,0.90
2022-11-22T00:22:17.419Z,0.90
2022-11-22T00:23:18.306Z,1.70
2022-11-22T00:24:19.203Z,1.40
2022-11-22T00:25:20.091Z,1.50
2022-11-22T00:26:21.000Z,1.20
2022-11-22T00:27:21.917Z,1.30
2022-11-22T00:28:22.796Z,1.00
2022-11-22T00:29:23.700Z,1.00
2022-11-22T00:30:24.602Z,0.80
2022-11-22T00:31:25.505Z,0.90
2022-11-22T00:32:26.444Z,0.70
2022-11-22T00:33:27.313Z,0.70
2022-11-22T00:34:28.209Z,0.60
2022-11-22T00:35:29.094Z,0.60
2022-11-22T00:36:29.992Z,0.70
2022-11-22T00:37:30.885Z,0.60
2022-11-22T00:38:31.840Z,0.70
2022-11-22T00:39:32.973Z,0.70
2022-11-22T00:40:33.376Z,0.50
2022-11-22T00:41:34.255Z,0.90
2022-11-22T00:42:35.150Z,0.70
2022-11-22T00:43:36.025Z,0.70
2022-11-22T00:44:36.941Z,0.60
2022-11-22T00:45:37.806Z,0.70
2022-11-22T00:46:38.690Z,0.60
2022-11-22T00:47:39.599Z,0.60
2022-11-22T00:48:40.457Z,0.70
2022-11-22T00:49:41.355Z,0.70
2022-11-22T00:50:42.256Z,0.50
2022-11-22T00:51:43.154Z,0.60
2022-11-22T00:52:44.037Z,0.60
2022-11-22T00:53:44.916Z,0.70
2022-11-22T00:54:48.855Z,0.50
2022-11-22T00:55:47.578Z,0.50
2022-11-22T00:56:47.483Z,0.70
2022-11-22T00:57:48.360Z,0.70
2022-11-22T00:58:49.232Z,0.60
2022-11-22T00:59:50.132Z,0.60
2022-11-22T01:00:56.071Z,0.60
2022-11-22T01:01:52.775Z,0.70
2022-11-22T01:02:52.681Z,0.60
2022-11-22T01:03:53.542Z,0.50
2022-11-22T01:04:54.436Z,0.60
2022-11-22T01:05:55.321Z,0.60
2022-11-22T01:06:56.206Z,0.60
2022-11-22T01:07:57.087Z,0.60
2022-11-22T01:08:57.984Z,0.50
2022-11-22T01:09:58.871Z,0.60
2022-11-22T01:10:59.739Z,0.60
2022-11-22T01:12:00.632Z,0.60
2022-11-22T01:13:01.508Z,0.60
2022-11-22T01:14:02.390Z,0.60
2022-11-22T01:15:03.277Z,0.50
2022-11-22T01:16:04.157Z,0.60
2022-11-22T01:17:05.054Z,0.60
2022-11-22T01:18:05.948Z,0.70
2022-11-22T01:19:06.801Z,0.60
2022-11-22T01:20:07.715Z,0.60
2022-11-22T01:21:08.601Z,0.50
2022-11-22T01:22:09.498Z,0.60
2022-11-22T01:23:10.394Z,0.50
2022-11-22T01:24:11.264Z,0.60
2022-11-22T01:25:12.160Z,0.60
2022-11-22T01:26:13.041Z,0.50
2022-11-22T01:27:13.917Z,0.60
2022-11-22T01:28:14.807Z,0.60
2022-11-22T01:29:15.757Z,0.60
2022-11-22T01:30:16.619Z,0.50
2022-11-22T01:31:17.538Z,0.70
2022-11-22T01:32:18.422Z,0.70
2022-11-22T01:33:19.333Z,0.90
2022-11-22T01:34:20.189Z,0.90
2022-11-22T01:35:21.101Z,0.70
2022-11-22T01:36:21.969Z,0.80
2022-11-22T01:37:22.854Z,0.80
2022-11-22T01:38:23.737Z,0.80
2022-11-22T01:39:24.619Z,0.60
2022-11-22T01:40:25.511Z,0.50
2022-11-22T01:41:26.409Z,0.70
2022-11-22T01:42:27.285Z,0.60
2022-11-22T01:43:28.185Z,0.60
2022-11-22T01:44:29.093Z,0.60
2022-11-22T01:45:30.007Z,0.60
2022-11-22T01:46:30.893Z,0.60
2022-11-22T01:47:31.813Z,0.50
2022-11-22T01:48:32.718Z,0.60
2022-11-22T01:49:33.580Z,0.60
2022-11-22T01:50:34.506Z,0.60
2022-11-22T01:51:35.417Z,0.70
2022-11-22T01:52:36.293Z,0.60
2022-11-22T01:53:37.212Z,0.50
2022-11-22T01:54:38.087Z,0.60
2022-11-22T01:55:38.990Z,0.60
2022-11-22T01:56:39.877Z,0.50
2022-11-22T01:57:40.764Z,0.70
2022-11-22T01:58:41.643Z,0.60
2022-11-22T01:59:42.537Z,0.60
2022-11-22T02:00:43.466Z,0.70
2022-11-22T02:01:44.387Z,0.60
2022-11-22T02:02:45.249Z,0.60
2022-11-22T02:03:46.153Z,0.70
2022-11-22T02:04:47.016Z,0.70
2022-11-22T02:05:47.918Z,0.60
2022-11-22T02:06:48.787Z,0.60
2022-11-22T02:07:49.812Z,0.70
2022-11-22T02:08:50.172Z,0.70
2022-11-22T02:09:51.061Z,0.70
2022-11-22T02:10:51.964Z,0.80
2022-11-22T02:11:52.865Z,1.00
2022-11-22T02:12:53.735Z,0.80
2022-11-22T02:13:54.624Z,0.80
2022-11-22T02:14:55.505Z,0.70
2022-11-22T02:15:56.398Z,0.70
2022-11-22T02:16:57.281Z,0.60
2022-11-22T02:17:58.166Z,0.60
2022-11-22T02:18:59.110Z,0.70
2022-11-22T02:19:59.932Z,0.60
2022-11-22T02:21:00.819Z,0.50
2022-11-22T02:22:01.720Z,0.60
2022-11-22T02:23:02.599Z,0.60
2022-11-22T02:24:03.489Z,0.50
2022-11-22T02:25:04.360Z,0.60
2022-11-22T02:26:05.252Z,0.50
2022-11-22T02:27:06.132Z,0.50
2022-11-22T02:28:07.015Z,0.60
2022-11-22T02:29:07.898Z,0.60
2022-11-22T02:30:08.803Z,0.50
2022-11-22T02:31:09.689Z,0.40
2022-11-22T02:32:10.564Z,0.50
2022-11-22T02:33:11.445Z,0.50
2022-11-22T02:34:12.358Z,0.50
2022-11-22T02:35:13.210Z,0.60
2022-11-22T02:36:14.288Z,0.60
2022-11-22T02:37:14.663Z,0.60
2022-11-22T02:38:15.538Z,0.60
2022-11-22T02:39:16.426Z,0.70
2022-11-22T02:40:17.306Z,0.50
2022-11-22T02:41:18.206Z,0.60
2022-11-22T02:42:19.090Z,0.60
2022-11-22T02:43:19.963Z,0.50
2022-11-22T02:44:20.857Z,0.60
2022-11-22T02:45:21.738Z,0.50
2022-11-22T02:46:22.625Z,0.50
2022-11-22T02:47:23.506Z,0.50
2022-11-22T02:48:24.403Z,0.50
2022-11-22T02:49:25.289Z,0.70
2022-11-22T02:50:26.153Z,0.50
2022-11-22T02:51:27.063Z,0.60
2022-11-22T02:52:27.939Z,0.60
2022-11-22T02:53:28.825Z,0.50
2022-11-22T02:54:29.728Z,0.50
2022-11-22T02:55:30.586Z,0.70
2022-11-22T02:56:31.481Z,0.50
2022-11-22T02:57:32.362Z,0.70
2022-11-22T02:58:33.235Z,0.60
2022-11-22T02:59:34.120Z,0.60
2022-11-22T03:00:35.047Z,0.60
2022-11-22T03:01:35.959Z,0.60
2022-11-22T03:02:36.839Z,0.60
2022-11-22T03:03:37.715Z,0.60
2022-11-22T03:04:38.619Z,0.60
2022-11-22T03:05:39.495Z,0.60
2022-11-22T03:06:40.411Z,0.60
2022-11-22T03:07:41.370Z,0.60
2022-11-22T03:08:42.299Z,0.50
2022-11-22T03:09:43.107Z,0.60
2022-11-22T03:10:43.992Z,0.60
2022-11-22T03:11:44.884Z,0.50
2022-11-22T03:12:45.774Z,0.50
2022-11-22T03:13:46.653Z,0.60
2022-11-22T03:14:47.534Z,0.60
2022-11-22T03:15:48.422Z,0.60
2022-11-22T03:16:49.312Z,0.60
2022-11-22T03:17:50.199Z,0.60
2022-11-22T03:18:51.091Z,0.50
2022-11-22T03:19:51.988Z,0.60
2022-11-22T03:20:52.857Z,0.80
2022-11-22T03:21:53.748Z,0.50
2022-11-22T03:22:54.627Z,0.60
2022-11-22T03:23:55.511Z,0.60
2022-11-22T03:24:56.410Z,0.60
2022-11-22T03:25:57.278Z,0.50
2022-11-22T03:26:58.173Z,0.50
2022-11-22T03:27:59.054Z,0.50
2022-11-22T03:28:59.952Z,0.50
2022-11-22T03:30:00.862Z,0.50
2022-11-22T03:31:01.775Z,0.60
2022-11-22T03:32:02.679Z,0.50
2022-11-22T03:33:03.577Z,0.50
2022-11-22T03:34:04.469Z,0.50
2022-11-22T03:35:05.390Z,0.60
2022-11-22T03:36:06.273Z,0.50
2022-11-22T03:37:07.208Z,0.60
2022-11-22T03:38:08.079Z,0.50
2022-11-22T03:39:08.987Z,0.50
2022-11-22T03:40:09.887Z,0.50
2022-11-22T03:41:10.773Z,0.50
2022-11-22T03:42:14.516Z,0.60
2022-11-22T03:43:13.447Z,0.60
2022-11-22T03:44:13.320Z,0.60
2022-11-22T03:45:14.201Z,0.60
2022-11-22T03:46:15.085Z,0.50
2022-11-22T03:47:15.976Z,0.60
2022-11-22T03:48:16.863Z,0.60
2022-11-22T03:49:17.757Z,0.50
2022-11-22T03:50:18.657Z,0.50
2022-11-22T03:51:19.517Z,0.50
2022-11-22T03:52:20.419Z,0.60
2022-11-22T03:53:21.298Z,0.50
2022-11-22T03:54:22.181Z,0.60
2022-11-22T03:55:23.073Z,0.60
2022-11-22T03:56:23.954Z,0.50
2022-11-22T03:57:24.854Z,0.50
2022-11-22T03:58:25.732Z,0.50
2022-11-22T03:59:26.833Z,0.60
2022-11-22T04:00:27.329Z,0.60
2022-11-22T04:01:28.292Z,0.60
2022-11-22T04:02:29.196Z,0.60
2022-11-22T04:03:30.063Z,0.70
2022-11-22T04:04:30.945Z,0.60
2022-11-22T04:05:31.844Z,0.60
2022-11-22T04:06:32.701Z,0.80
2022-11-22T04:07:33.642Z,0.80
2022-11-22T04:08:34.623Z,1.00
2022-11-22T04:09:35.523Z,1.00
2022-11-22T04:10:36.337Z,1.10
2022-11-22T04:11:37.218Z,1.60
2022-11-22T04:12:38.102Z,1.80
2022-11-22T04:13:38.989Z,2.00
2022-11-22T04:14:39.893Z,2.00
2022-11-22T04:15:40.772Z,1.30
2022-11-22T04:16:41.680Z,1.10
2022-11-22T04:17:42.591Z,0.80
2022-11-22T04:18:43.484Z,0.70
2022-11-22T04:19:44.383Z,0.60
2022-11-22T04:20:45.284Z,0.60
2022-11-22T04:21:46.156Z,0.50
2022-11-22T04:22:47.065Z,0.60
2022-11-22T04:23:47.956Z,0.60
2022-11-22T04:24:48.840Z,0.60
2022-11-22T04:25:49.720Z,0.70
2022-11-22T04:26:50.635Z,0.60
2022-11-22T04:27:51.519Z,0.60
2022-11-22T04:29:09.372Z,0.70
2022-11-22T04:29:54.181Z,0.60
2022-11-22T04:30:54.057Z,0.70
2022-11-22T04:31:54.940Z,2.60
2022-11-22T04:32:55.835Z,2.00
2022-11-22T04:33:56.706Z,1.10
2022-11-22T04:34:57.581Z,1.00
2022-11-22T04:35:58.482Z,1.40
2022-11-22T04:36:59.350Z,0.80
2022-11-22T04:38:00.267Z,1.00
2022-11-22T04:39:01.160Z,1.10
2022-11-22T04:40:02.032Z,0.80
2022-11-22T04:41:02.909Z,0.90
2022-11-22T04:42:03.791Z,0.60
2022-11-22T04:43:04.702Z,0.80
2022-11-22T04:44:05.595Z,0.70
2022-11-22T04:45:06.482Z,0.90
2022-11-22T04:46:07.368Z,0.80
2022-11-22T04:47:08.238Z,1.00
2022-11-22T04:48:09.151Z,1.10
2022-11-22T04:49:10.044Z,0.70
2022-11-22T04:50:10.923Z,0.50
2022-11-22T04:51:11.823Z,0.60
2022-11-22T04:52:12.705Z,0.60
2022-11-22T04:53:13.579Z,0.70
2022-11-22T04:54:14.464Z,0.60
2022-11-22T04:55:15.336Z,0.80
2022-11-22T04:56:16.220Z,0.70
2022-11-22T04:57:17.121Z,0.70
2022-11-22T04:58:18.000Z,0.60
2022-11-22T04:59:18.882Z,0.70
2022-11-22T05:00:19.772Z,0.80
2022-11-22T05:01:20.762Z,0.70
2022-11-22T05:02:21.607Z,0.80
2022-11-22T05:03:22.528Z,1.00
2022-11-22T05:04:23.392Z,1.00
2022-11-22T05:05:24.309Z,0.80
2022-11-22T05:06:25.203Z,1.30
2022-11-22T05:07:26.121Z,1.70
2022-11-22T05:08:26.975Z,1.70
2022-11-22T05:09:28.109Z,18.40
2022-11-22T05:10:28.644Z,8.10
2022-11-22T05:11:29.518Z,2.70
2022-11-22T05:12:30.404Z,3.70
2022-11-22T05:13:31.292Z,3.40
2022-11-22T05:14:32.178Z,2.70
2022-11-22T05:15:33.069Z,2.00
2022-11-22T05:16:33.943Z,1.50
2022-11-22T05:17:34.833Z,2.30
2022-11-22T05:18:35.720Z,2.70
2022-11-22T05:19:36.619Z,2.40
2022-11-22T05:20:37.487Z,2.00
2022-11-22T05:21:38.395Z,1.50
2022-11-22T05:22:39.258Z,1.10
2022-11-22T05:23:40.150Z,1.10
2022-11-22T05:24:41.032Z,1.80
2022-11-22T05:25:41.916Z,4.60
2022-11-22T05:26:42.799Z,7.00
2022-11-22T05:27:43.707Z,7.80
2022-11-22T05:28:44.576Z,7.50
2022-11-22T05:29:45.462Z,5.00
2022-11-22T05:30:46.341Z,3.70
2022-11-22T05:31:51.367Z,2.40
2022-11-22T05:32:47.938Z,3.50
2022-11-22T05:33:48.843Z,4.70
2022-11-22T05:34:49.754Z,2.30
2022-11-22T05:35:50.642Z,3.70
2022-11-22T05:36:51.570Z,4.70
2022-11-22T05:37:52.463Z,2.20
2022-11-22T05:38:53.355Z,1.50
2022-11-22T05:39:54.228Z,1.30
2022-11-22T05:40:55.136Z,2.40
2022-11-22T05:41:56.234Z,20.90
2022-11-22T05:42:56.608Z,15.90
2022-11-22T05:43:57.505Z,17.50
2022-11-22T05:44:58.388Z,16.70
2022-11-22T05:45:59.269Z,14.30
2022-11-22T05:47:00.154Z,5.50
2022-11-22T05:48:01.053Z,4.50
2022-11-22T05:49:01.929Z,3.10
2022-11-22T05:50:02.823Z,2.50
2022-11-22T05:51:03.700Z,2.50
2022-11-22T05:52:04.599Z,4.20
2022-11-22T05:53:05.464Z,2.60
2022-11-22T05:54:06.358Z,1.40
2022-11-22T05:55:07.282Z,1.40
2022-11-22T05:56:08.145Z,2.10
2022-11-22T05:57:09.027Z,1.50
2022-11-22T05:58:09.913Z,1.20
2022-11-22T05:59:10.805Z,1.20
2022-11-22T06:00:11.693Z,1.50
2022-11-22T06:01:12.592Z,2.10
2022-11-22T06:02:13.553Z,1.20
2022-11-22T06:03:14.421Z,1.30
2022-11-22T06:04:15.314Z,1.40
2022-11-22T06:05:16.198Z,1.90
2022-11-22T06:06:17.085Z,1.70
2022-11-22T06:07:18.025Z,2.10
2022-11-22T06:08:18.858Z,1.80
2022-11-22T06:09:19.771Z,1.80
2022-11-22T06:10:20.660Z,1.60
2022-11-22T06:11:21.575Z,1.80
2022-11-22T06:12:22.476Z,1.60
2022-11-22T06:13:23.348Z,1.40
2022-11-22T06:14:24.244Z,1.60
2022-11-22T06:15:25.138Z,1.30
2022-11-22T06:16:26.043Z,1.20
2022-11-22T06:17:26.927Z,1.30
2022-11-22T06:18:27.817Z,1.50
2022-11-22T06:19:28.977Z,1.60
2022-11-22T06:20:29.472Z,1.60
2022-11-22T06:21:30.354Z,1.60
2022-11-22T06:22:31.261Z,1.40
2022-11-22T06:23:31.749Z,1.50
2022-11-22T06:24:32.646Z,1.20
2022-11-22T06:25:33.519Z,1.30
2022-11-22T06:26:39.067Z,1.50
2022-11-22T06:27:36.173Z,1.30
2022-11-22T06:28:36.048Z,1.00
2022-11-22T06:29:36.938Z,1.00
2022-11-22T06:30:37.824Z,0.90
2022-11-22T06:31:38.714Z,1.00
2022-11-22T06:32:39.588Z,0.90
2022-11-22T06:33:40.479Z,0.80
2022-11-22T06:34:41.375Z,1.00
2022-11-22T06:35:42.257Z,1.00
2022-11-22T06:36:43.131Z,1.10
2022-11-22T06:37:43.996Z,1.10
2022-11-22T06:38:44.803Z,1.10
2022-11-22T06:39:45.644Z,2.70
2022-11-22T06:40:46.469Z,1.90
2022-11-22T06:41:47.300Z,1.20
2022-11-22T06:42:48.125Z,1.30
2022-11-22T06:43:49.757Z,1.10
2022-11-22T06:44:49.693Z,1.10
2022-11-22T06:45:50.575Z,0.90
2022-11-22T06:46:51.459Z,0.90
2022-11-22T06:47:52.345Z,1.30
2022-11-22T06:48:53.228Z,1.40
2022-11-22T06:49:54.089Z,1.40
2022-11-22T06:50:54.915Z,1.20
2022-11-22T06:51:55.752Z,1.10
2022-11-22T06:52:56.691Z,1.30
2022-11-22T06:53:57.443Z,1.30
2022-11-22T06:54:58.290Z,1.40
2022-11-22T06:56:01.456Z,1.10
2022-11-22T06:56:59.936Z,1.10
2022-11-22T06:58:00.762Z,1.30
2022-11-22T06:59:01.600Z,1.30
2022-11-22T07:00:02.443Z,1.50
2022-11-22T07:01:03.324Z,1.40
2022-11-22T07:02:06.633Z,1.30
2022-11-22T07:03:04.803Z,1.10
2022-11-22T07:04:05.653Z,1.10
2022-11-22T07:06:08.208Z,1.20
2022-11-22T07:07:08.075Z,1.30
2022-11-22T07:08:13.740Z,0.90
2022-11-22T07:09:10.622Z,0.70
2022-11-22T07:10:10.443Z,0.80
2022-11-22T07:11:11.262Z,1.10
2022-11-22T07:12:12.089Z,1.50
2022-11-22T07:13:12.909Z,0.90
2022-11-22T07:14:13.740Z,1.00
2022-11-22T07:15:14.572Z,1.10
2022-11-22T07:16:15.417Z,1.20
2022-11-22T07:17:16.233Z,1.90
2022-11-22T07:18:17.059Z,2.00
2022-11-22T07:19:17.890Z,1.60
2022-11-22T07:20:18.752Z,1.70
2022-11-22T07:21:19.580Z,1.90
2022-11-22T07:22:20.435Z,1.60
2022-11-22T07:23:21.258Z,1.60
2022-11-22T07:24:22.069Z,1.80
2022-11-22T07:25:22.897Z,1.50
2022-11-22T07:26:23.729Z,1.40
2022-11-22T07:27:24.555Z,1.50
2022-11-22T07:28:25.385Z,1.30
2022-11-22T07:29:26.229Z,1.30
2022-11-22T07:30:27.068Z,1.10
2022-11-22T07:31:27.896Z,1.00
2022-11-22T07:32:28.727Z,1.20
2022-11-22T07:33:29.564Z,1.00
2022-11-22T07:34:30.385Z,1.20
2022-11-22T07:35:31.250Z,0.90
2022-11-22T07:36:32.062Z,1.20
2022-11-22T07:37:32.896Z,1.20
2022-11-22T07:38:33.748Z,1.20
2022-11-22T07:39:34.549Z,1.20
2022-11-22T07:40:35.412Z,1.10
2022-11-22T07:41:36.271Z,0.90
2022-11-22T07:42:37.091Z,1.20
2022-11-22T07:43:37.915Z,1.20
2022-11-22T07:44:38.749Z,1.10
2022-11-22T07:45:39.602Z,1.20
2022-11-22T07:46:40.424Z,1.30
2022-11-22T07:47:41.258Z,1.40
2022-11-22T07:48:42.083Z,1.30
2022-11-22T07:49:42.921Z,1.50
2022-11-22T07:50:43.761Z,4.00
2022-11-22T07:51:44.614Z,1.80
2022-11-22T07:52:45.445Z,1.40
2022-11-22T07:53:46.292Z,1.30
2022-11-22T07:54:47.114Z,1.40
2022-11-22T07:55:47.972Z,1.50
2022-11-22T07:56:48.800Z,1.40
2022-11-22T07:57:49.632Z,1.70
2022-11-22T07:58:50.462Z,1.20
2022-11-22T07:59:51.296Z,1.10
2022-11-22T08:00:52.124Z,1.20
2022-11-22T08:01:53.049Z,1.00
2022-11-22T08:02:53.873Z,1.20
2022-11-22T08:03:54.679Z,1.20
2022-11-22T08:04:55.516Z,1.50
2022-11-22T08:05:56.360Z,1.30
2022-11-22T08:06:57.192Z,1.30
2022-11-22T08:07:58.028Z,1.00
2022-11-22T08:09:02.185Z,0.90
2022-11-22T08:09:59.764Z,1.00
2022-11-22T08:11:00.616Z,1.00
2022-11-22T08:12:01.467Z,0.90
2022-11-22T08:13:02.265Z,1.40
2022-11-22T08:14:03.095Z,1.20
2022-11-22T08:15:03.955Z,2.10
2022-11-22T08:16:06.049Z,2.10
2022-11-22T08:17:05.558Z,2.30
2022-11-22T08:18:06.388Z,2.30
2022-11-22T08:19:07.208Z,2.20
2022-11-22T08:20:08.081Z,2.50
2022-11-22T08:21:08.907Z,2.10
2022-11-22T08:22:09.734Z,1.70
2022-11-22T08:23:10.567Z,1.60
2022-11-22T08:24:11.534Z,1.80
2022-11-22T08:25:12.310Z,1.90
2022-11-22T08:26:13.185Z,2.20
2022-11-22T08:27:13.990Z,2.20
2022-11-22T08:28:14.830Z,1.90
2022-11-22T08:29:15.651Z,1.70
2022-11-22T08:30:16.480Z,3.10
2022-11-22T08:31:17.321Z,3.20
2022-11-22T08:32:18.174Z,3.60
2022-11-22T08:33:18.994Z,1.60
2022-11-22T08:34:19.825Z,1.40
2022-11-22T08:35:20.654Z,1.30
2022-11-22T08:36:21.494Z,1.40
2022-11-22T08:37:22.318Z,1.50
2022-11-22T08:38:23.143Z,1.70
2022-11-22T08:39:24.078Z,1.70
2022-11-22T08:40:24.931Z,2.00
2022-11-22T08:41:25.786Z,2.00
2022-11-22T08:42:26.616Z,2.20
2022-11-22T08:43:27.447Z,2.20
2022-11-22T08:44:28.271Z,2.00
2022-11-22T08:45:29.108Z,1.90
2022-11-22T08:46:29.983Z,2.20
2022-11-22T08:47:30.795Z,2.10
2022-11-22T08:48:31.617Z,2.00
2022-11-22T08:49:33.040Z,1.90
2022-11-22T08:50:33.025Z,2.10
2022-11-22T08:51:33.855Z,2.10
2022-11-22T08:52:34.687Z,2.20
2022-11-22T08:53:35.538Z,2.20
2022-11-22T08:54:38.197Z,2.00
2022-11-22T08:55:37.150Z,2.00
2022-11-22T08:56:37.984Z,2.00
2022-11-22T08:57:38.807Z,1.90
2022-11-22T08:58:39.733Z,1.80
2022-11-22T08:59:40.578Z,1.80
2022-11-22T09:00:41.406Z,1.60
2022-11-22T09:01:42.400Z,1.70
2022-11-22T09:02:43.207Z,1.90
2022-11-22T09:03:44.037Z,2.10
2022-11-22T09:04:44.866Z,2.20
2022-11-22T09:09:02.841Z,2.20
2022-11-22T09:09:49.807Z,2.70
2022-11-22T09:10:49.065Z,3.60
2022-11-22T09:11:49.941Z,10.10
2022-11-22T09:12:50.752Z,16.00
2022-11-22T09:13:51.590Z,11.50
2022-11-22T09:14:52.411Z,17.00
2022-11-22T09:15:53.240Z,11.50
2022-11-22T09:16:54.079Z,12.80
2022-11-22T09:17:54.914Z,13.20
2022-11-22T09:18:55.739Z,8.10
2022-11-22T09:19:56.599Z,8.70
2022-11-22T09:20:57.392Z,6.10
2022-11-22T09:21:58.246Z,3.70
2022-11-22T09:22:59.074Z,11.10
2022-11-22T09:23:59.901Z,11.40
2022-11-22T09:25:00.854Z,15.50
2022-11-22T09:26:01.625Z,15.70
2022-11-22T09:27:02.460Z,12.10
2022-11-22T09:28:03.321Z,11.80
2022-11-22T09:29:04.120Z,9.10
2022-11-22T09:30:04.956Z,5.40
2022-11-22T09:31:05.787Z,3.00
2022-11-22T09:32:06.624Z,5.60
2022-11-22T09:33:07.448Z,33.00
2022-11-22T09:34:08.280Z,28.10
2022-11-22T09:35:09.122Z,21.70
2022-11-22T09:36:09.972Z,16.20
2022-11-22T09:37:10.798Z,5.20
2022-11-22T09:38:11.630Z,3.20
2022-11-22T09:39:12.460Z,4.70
2022-11-22T09:40:13.409Z,4.30
2022-11-22T09:41:14.215Z,2.90
2022-11-22T09:42:15.078Z,1.70
2022-11-22T09:43:15.898Z,1.40
2022-11-22T09:44:16.729Z,1.30
2022-11-22T09:45:17.556Z,1.20
2022-11-22T09:46:18.393Z,2.90
2022-11-22T09:47:19.228Z,6.40
2022-11-22T09:48:20.069Z,9.90
2022-11-22T09:49:20.913Z,14.30
2022-11-22T09:50:21.743Z,15.90
2022-11-22T09:51:22.572Z,4.00
2022-11-22T09:52:23.433Z,5.20
2022-11-22T09:53:24.258Z,4.50
2022-11-22T09:54:25.156Z,3.80
2022-11-22T09:55:26.087Z,1.80
2022-11-22T09:56:26.839Z,2.30
2022-11-22T09:57:27.696Z,1.60
2022-11-22T09:58:28.527Z,2.00
2022-11-22T09:59:29.712Z,3.10
2022-11-22T10:00:30.200Z,3.70
2022-11-22T10:01:31.110Z,5.20
2022-11-22T10:02:43.604Z,4.00
2022-11-22T10:03:33.637Z,2.30
2022-11-22T10:04:33.465Z,1.00
2022-11-22T10:05:34.299Z,1.90
2022-11-22T10:06:35.124Z,5.30
2022-11-22T10:07:36.022Z,3.80
2022-11-22T10:08:36.821Z,0.80
2022-11-22T10:09:37.681Z,1.10
2022-11-22T10:10:38.594Z,1.10
2022-11-22T10:11:39.353Z,1.10
2022-11-22T10:12:40.198Z,1.00
2022-11-22T10:13:41.038Z,1.20
2022-11-22T10:14:41.872Z,1.90
2022-11-22T10:15:42.715Z,2.10
2022-11-22T10:16:43.534Z,3.10
2022-11-22T10:17:44.375Z,3.70
2022-11-22T10:18:45.202Z,4.10
2022-11-22T10:19:46.029Z,3.50
2022-11-22T10:20:48.948Z,3.30
2022-11-22T10:21:47.416Z,3.00
2022-11-22T10:22:48.250Z,3.00
2022-11-22T10:23:49.106Z,3.20
2022-11-22T10:24:49.926Z,2.90
2022-11-22T10:25:50.865Z,2.40
2022-11-22T10:26:51.634Z,2.70
2022-11-22T10:27:56.245Z,2.90
2022-11-22T10:28:54.179Z,2.30
2022-11-22T10:29:54.018Z,1.80
2022-11-22T10:30:54.888Z,1.30
2022-11-22T10:31:55.685Z,1.40
2022-11-22T10:32:56.522Z,1.60
2022-11-22T10:33:57.395Z,4.60
2022-11-22T10:34:58.203Z,3.00
2022-11-22T10:35:59.029Z,2.10
2022-11-22T10:36:59.855Z,2.00
2022-11-22T10:38:00.712Z,1.80
2022-11-22T10:39:01.570Z,1.90
2022-11-22T10:40:02.373Z,1.60
2022-11-22T10:41:03.317Z,1.10
2022-11-22T10:42:04.068Z,1.20
2022-11-22T10:43:04.909Z,1.30
2022-11-22T10:44:05.739Z,1.00
2022-11-22T10:45:06.600Z,1.10
2022-11-22T10:46:07.412Z,1.00
2022-11-22T10:47:08.245Z,0.90
2022-11-22T10:48:09.090Z,0.80
2022-11-22T10:49:09.926Z,0.90
2022-11-22T10:50:10.753Z,0.90
2022-11-22T10:51:11.600Z,1.00
2022-11-22T10:52:12.413Z,1.10
2022-11-22T10:53:13.254Z,1.20
2022-11-22T10:54:14.083Z,1.00
2022-11-22T10:55:14.915Z,1.30
2022-11-22T10:56:15.929Z,1.40
2022-11-22T10:57:16.712Z,1.90
2022-11-22T10:58:17.523Z,2.20
2022-11-22T10:59:18.429Z,2.70
2022-11-22T11:00:19.323Z,2.50
2022-11-22T11:01:20.237Z,2.60
2022-11-22T11:02:21.012Z,2.40
2022-11-22T11:03:21.902Z,2.20
2022-11-22T11:04:22.692Z,2.00
2022-11-22T11:05:23.518Z,1.90
2022-11-22T11:06:33.336Z,2.30
2022-11-22T11:07:26.131Z,2.30
2022-11-22T11:08:47.512Z,2.20
2022-11-22T11:10:34.276Z,4.40
2022-11-22T11:11:29.205Z,2.10
2022-11-22T11:12:28.966Z,2.30
2022-11-22T11:13:29.803Z,2.50
2022-11-22T11:14:31.116Z,2.40
2022-11-22T11:15:31.515Z,2.90
2022-11-22T11:16:32.350Z,4.70
2022-11-22T11:17:33.170Z,4.30
2022-11-22T11:18:34.068Z,3.30
2022-11-22T11:19:34.884Z,3.00
2022-11-22T11:20:35.760Z,2.50
2022-11-22T11:21:36.543Z,2.60
2022-11-22T11:23:06.924Z,2.90
2022-11-22T11:23:39.111Z,2.80
2022-11-22T11:24:38.942Z,2.60
2022-11-22T11:25:39.793Z,2.70
2022-11-22T11:26:40.732Z,2.50
2022-11-22T11:27:41.602Z,2.10
2022-11-22T11:28:42.460Z,1.90
2022-11-22T11:29:43.305Z,2.10
2022-11-22T11:30:44.121Z,2.20
2022-11-22T11:31:44.949Z,2.00
2022-11-22T11:32:45.804Z,2.70
2022-11-22T11:33:46.624Z,3.20
2022-11-22T11:34:47.449Z,2.90
2022-11-22T11:35:48.296Z,2.70
2022-11-22T11:36:49.107Z,3.30
2022-11-22T11:37:49.939Z,3.00
2022-11-22T11:38:50.780Z,2.60
2022-11-22T11:39:51.637Z,2.40
2022-11-22T11:40:52.443Z,2.30
2022-11-22T11:41:53.389Z,2.30
2022-11-22T11:42:54.147Z,2.20
2022-11-22T11:43:54.997Z,2.00
2022-11-22T11:44:55.821Z,2.30
2022-11-22T11:45:56.649Z,2.30
2022-11-22T11:46:57.496Z,3.70
2022-11-22T11:47:58.309Z,3.60
2022-11-22T11:48:59.164Z,4.10
2022-11-22T11:49:59.980Z,3.40
2022-11-22T11:51:00.807Z,3.10
2022-11-22T11:52:01.655Z,3.30
2022-11-22T11:53:02.466Z,3.70
2022-11-22T11:54:03.331Z,3.20
2022-11-22T11:55:04.135Z,3.00
2022-11-22T11:56:04.962Z,3.00
2022-11-22T11:57:05.902Z,3.00
2022-11-22T11:58:06.651Z,2.70
2022-11-22T11:59:07.493Z,2.50
2022-11-22T12:00:08.322Z,2.30
2022-11-22T12:01:09.156Z,2.30
2022-11-22T12:02:10.135Z,1.90
2022-11-22T12:03:10.963Z,2.00
2022-11-22T12:04:11.825Z,1.70
2022-11-22T12:05:12.638Z,2.00
2022-11-22T12:06:13.486Z,1.80
2022-11-22T12:07:14.346Z,3.40
2022-11-22T12:08:15.150Z,4.30
2022-11-22T12:09:15.984Z,4.30
2022-11-22T12:10:16.816Z,3.80
2022-11-22T12:11:17.649Z,3.70
2022-11-22T12:12:18.641Z,5.70
2022-11-22T12:13:19.447Z,5.80
2022-11-22T12:14:20.817Z,6.10
2022-11-22T12:15:21.195Z,5.80
2022-11-22T12:16:22.013Z,5.80
2022-11-22T12:17:22.864Z,5.00
2022-11-22T12:18:23.681Z,5.30
2022-11-22T12:19:25.182Z,5.00
2022-11-22T12:20:25.093Z,4.70
2022-11-22T12:21:25.904Z,4.10
2022-11-22T12:22:48.409Z,3.60
2022-11-22T12:23:28.454Z,3.70
2022-11-22T12:24:52.218Z,4.00
2022-11-22T12:25:32.999Z,3.70
2022-11-22T12:26:29.627Z,4.30
2022-11-22T12:27:30.576Z,3.60
2022-11-22T12:28:31.327Z,3.40
2022-11-22T12:29:32.158Z,3.00
2022-11-22T12:30:32.988Z,2.40
2022-11-22T12:31:33.838Z,2.30
2022-11-22T12:32:34.649Z,2.50
2022-11-22T12:33:35.481Z,2.20
2022-11-22T12:34:36.328Z,1.90
2022-11-22T12:35:37.158Z,1.50
2022-11-22T12:36:37.994Z,1.80
2022-11-22T12:37:38.811Z,1.90
2022-11-22T12:38:39.653Z,1.80
2022-11-22T12:39:40.480Z,1.70
2022-11-22T12:40:41.315Z,1.70
2022-11-22T12:41:42.130Z,2.00
2022-11-22T12:42:43.080Z,1.70
2022-11-22T12:43:43.840Z,1.80
2022-11-22T12:44:44.679Z,1.80
2022-11-22T12:45:45.507Z,1.30
2022-11-22T12:46:46.330Z,1.20
2022-11-22T12:47:47.174Z,0.90
2022-11-22T12:48:49.146Z,1.10
2022-11-22T12:49:48.632Z,1.00
2022-11-22T12:50:49.460Z,1.30
2022-11-22T12:51:50.301Z,3.40
2022-11-22T12:52:51.123Z,3.00
2022-11-22T12:53:51.953Z,3.10
2022-11-22T12:54:52.812Z,2.70
2022-11-22T12:55:53.668Z,2.20
2022-11-22T12:56:54.511Z,1.70
2022-11-22T12:57:55.444Z,1.50
2022-11-22T12:58:56.204Z,1.30
2022-11-22T12:59:57.028Z,1.10
2022-11-22T13:00:57.928Z,1.00
2022-11-22T13:01:58.707Z,1.20
2022-11-22T13:02:59.551Z,5.20
2022-11-22T13:04:00.370Z,5.40
2022-11-22T13:05:01.209Z,6.60
2022-11-22T13:06:02.037Z,14.30
2022-11-22T13:07:02.899Z,10.80
2022-11-22T13:08:03.695Z,7.80
2022-11-22T13:09:04.670Z,2.30
2022-11-22T13:10:05.483Z,2.40
2022-11-22T13:11:06.310Z,1.60
2022-11-22T13:12:07.129Z,1.60
2022-11-22T13:13:08.079Z,2.00
2022-11-22T13:14:08.932Z,1.60
2022-11-22T13:15:09.765Z,1.70
2022-11-22T13:16:10.615Z,1.50
2022-11-22T13:17:11.439Z,1.60
2022-11-22T13:18:12.273Z,1.40
2022-11-22T13:19:13.100Z,1.40
2022-11-22T13:20:13.934Z,1.20
2022-11-22T13:21:14.766Z,1.10
2022-11-22T13:22:15.616Z,1.10
2022-11-22T13:23:16.427Z,1.60
2022-11-22T13:24:17.248Z,2.20
2022-11-22T13:25:18.089Z,3.30
2022-11-22T13:26:18.921Z,3.60
2022-11-22T13:27:19.751Z,3.90
2022-11-22T13:28:20.707Z,3.40
2022-11-22T13:29:21.475Z,2.60
2022-11-22T13:30:22.326Z,2.90
2022-11-22T13:31:23.162Z,2.80
2022-11-22T13:32:24.012Z,2.50
2022-11-22T13:33:24.837Z,2.70
2022-11-22T13:34:25.668Z,2.70